sensor_id;sensor_type;location;lat;lon;timestamp;P1;durP1;ratioP1;P2;durP2;ratioP2
19187;SDS011;9726;52.198;8.792;2024-01-11T00:01:49;99.50;;;33.27;;
19187;SDS011;9726;52.198;8.792;2024-01-11T00:04:17;106.50;;;34.07;;
19187;SDS011;9726;52.198;8.792;2024-01-11T00:06:45;86.80;;;32.07;;
19187;SDS011;9726;52.198;8.792;2024-01-11T00:09:12;95.80;;;32.53;;
19187;SDS011;9726;52.198;8.792;2024-01-11T00:11:40;88.17;;;34.50;;
19187;SDS011;9726;52.198;8.792;2024-01-11T00:14:07;104.43;;;32.57;;
19187;SDS011;9726;52.198;8.792;2024-01-11T00:16:35;88.70;;;33.57;;
19187;SDS011;9726;52.198;8.792;2024-01-11T00:19:03;97.43;;;33.43;;
19187;SDS011;9726;52.198;8.792;2024-01-11T00:21:30;116.53;;;35.17;;
19187;SDS011;9726;52.198;8.792;2024-01-11T00:23:58;100.07;;;37.70;;
19187;SDS011;9726;52.198;8.792;2024-01-11T00:26:26;115.53;;;35.20;;
19187;SDS011;9726;52.198;8.792;2024-01-11T00:28:56;104.53;;;38.17;;
19187;SDS011;9726;52.198;8.792;2024-01-11T00:31:23;111.60;;;34.17;;
19187;SDS011;9726;52.198;8.792;2024-01-11T00:33:50;94.03;;;35.40;;
19187;SDS011;9726;52.198;8.792;2024-01-11T00:36:18;101.33;;;34.07;;
19187;SDS011;9726;52.198;8.792;2024-01-11T00:38:47;92.33;;;35.50;;
19187;SDS011;9726;52.198;8.792;2024-01-11T00:41:14;102.80;;;34.57;;
19187;SDS011;9726;52.198;8.792;2024-01-11T00:43:42;96.37;;;33.07;;
19187;SDS011;9726;52.198;8.792;2024-01-11T00:46:09;84.93;;;33.23;;
19187;SDS011;9726;52.198;8.792;2024-01-11T00:48:37;100.53;;;34.50;;
19187;SDS011;9726;52.198;8.792;2024-01-11T00:51:05;104.50;;;35.87;;
19187;SDS011;9726;52.198;8.792;2024-01-11T00:53:33;81.53;;;30.03;;
19187;SDS011;9726;52.198;8.792;2024-01-11T00:56:02;92.73;;;33.57;;
19187;SDS011;9726;52.198;8.792;2024-01-11T00:58:30;92.07;;;31.83;;
19187;SDS011;9726;52.198;8.792;2024-01-11T01:00:57;82.07;;;30.30;;
19187;SDS011;9726;52.198;8.792;2024-01-11T01:03:25;96.87;;;35.10;;
19187;SDS011;9726;52.198;8.792;2024-01-11T01:05:52;92.03;;;33.57;;
19187;SDS011;9726;52.198;8.792;2024-01-11T01:08:20;96.80;;;35.63;;
19187;SDS011;9726;52.198;8.792;2024-01-11T01:10:47;92.27;;;33.73;;
19187;SDS011;9726;52.198;8.792;2024-01-11T01:13:15;90.63;;;31.53;;
19187;SDS011;9726;52.198;8.792;2024-01-11T01:15:42;98.20;;;34.07;;
19187;SDS011;9726;52.198;8.792;2024-01-11T01:18:10;92.83;;;35.97;;
19187;SDS011;9726;52.198;8.792;2024-01-11T01:20:38;99.13;;;35.47;;
19187;SDS011;9726;52.198;8.792;2024-01-11T01:23:06;101.57;;;35.53;;
19187;SDS011;9726;52.198;8.792;2024-01-11T01:25:33;91.57;;;32.77;;
19187;SDS011;9726;52.198;8.792;2024-01-11T01:28:01;90.27;;;34.33;;
19187;SDS011;9726;52.198;8.792;2024-01-11T01:30:28;88.73;;;33.37;;
19187;SDS011;9726;52.198;8.792;2024-01-11T01:32:56;90.23;;;34.17;;
19187;SDS011;9726;52.198;8.792;2024-01-11T01:35:23;86.63;;;32.70;;
19187;SDS011;9726;52.198;8.792;2024-01-11T01:37:51;99.93;;;32.20;;
19187;SDS011;9726;52.198;8.792;2024-01-11T01:40:19;85.53;;;32.20;;
19187;SDS011;9726;52.198;8.792;2024-01-11T01:42:46;87.77;;;35.33;;
19187;SDS011;9726;52.198;8.792;2024-01-11T01:45:14;91.13;;;34.47;;
19187;SDS011;9726;52.198;8.792;2024-01-11T01:47:43;94.67;;;36.43;;
19187;SDS011;9726;52.198;8.792;2024-01-11T01:50:11;91.87;;;33.67;;
19187;SDS011;9726;52.198;8.792;2024-01-11T01:52:39;87.67;;;33.00;;
19187;SDS011;9726;52.198;8.792;2024-01-11T01:55:10;84.60;;;32.37;;
19187;SDS011;9726;52.198;8.792;2024-01-11T01:57:39;90.03;;;31.40;;
19187;SDS011;9726;52.198;8.792;2024-01-11T02:00:08;84.10;;;32.33;;
19187;SDS011;9726;52.198;8.792;2024-01-11T02:02:39;81.40;;;33.10;;
19187;SDS011;9726;52.198;8.792;2024-01-11T02:05:07;103.97;;;34.83;;
19187;SDS011;9726;52.198;8.792;2024-01-11T02:07:35;94.10;;;31.20;;
19187;SDS011;9726;52.198;8.792;2024-01-11T02:10:02;97.60;;;34.57;;
19187;SDS011;9726;52.198;8.792;2024-01-11T02:12:30;83.70;;;30.10;;
19187;SDS011;9726;52.198;8.792;2024-01-11T02:14:57;77.67;;;31.23;;
19187;SDS011;9726;52.198;8.792;2024-01-11T02:17:26;77.93;;;27.07;;
19187;SDS011;9726;52.198;8.792;2024-01-11T02:19:54;93.63;;;30.57;;
19187;SDS011;9726;52.198;8.792;2024-01-11T02:22:24;80.00;;;31.03;;
19187;SDS011;9726;52.198;8.792;2024-01-11T02:24:51;79.67;;;30.67;;
19187;SDS011;9726;52.198;8.792;2024-01-11T02:27:19;83.50;;;31.17;;
19187;SDS011;9726;52.198;8.792;2024-01-11T02:29:47;71.27;;;29.57;;
19187;SDS011;9726;52.198;8.792;2024-01-11T02:32:15;75.97;;;29.93;;
19187;SDS011;9726;52.198;8.792;2024-01-11T02:34:42;96.43;;;30.90;;
19187;SDS011;9726;52.198;8.792;2024-01-11T02:37:10;88.67;;;31.20;;
19187;SDS011;9726;52.198;8.792;2024-01-11T02:39:38;83.57;;;29.47;;
19187;SDS011;9726;52.198;8.792;2024-01-11T02:42:06;83.40;;;29.10;;
19187;SDS011;9726;52.198;8.792;2024-01-11T02:44:34;86.07;;;29.80;;
19187;SDS011;9726;52.198;8.792;2024-01-11T02:47:03;81.80;;;31.10;;
19187;SDS011;9726;52.198;8.792;2024-01-11T02:49:31;85.93;;;30.17;;
19187;SDS011;9726;52.198;8.792;2024-01-11T02:51:58;94.00;;;34.43;;
19187;SDS011;9726;52.198;8.792;2024-01-11T02:54:26;87.33;;;31.70;;
19187;SDS011;9726;52.198;8.792;2024-01-11T02:56:54;86.03;;;31.57;;
19187;SDS011;9726;52.198;8.792;2024-01-11T02:59:23;101.80;;;32.97;;
19187;SDS011;9726;52.198;8.792;2024-01-11T03:01:51;92.40;;;32.33;;
19187;SDS011;9726;52.198;8.792;2024-01-11T03:04:19;87.47;;;32.20;;
19187;SDS011;9726;52.198;8.792;2024-01-11T03:06:46;87.80;;;31.03;;
19187;SDS011;9726;52.198;8.792;2024-01-11T03:09:14;92.83;;;31.00;;
19187;SDS011;9726;52.198;8.792;2024-01-11T03:11:42;79.83;;;29.90;;
19187;SDS011;9726;52.198;8.792;2024-01-11T03:14:10;71.73;;;29.27;;
19187;SDS011;9726;52.198;8.792;2024-01-11T03:16:37;98.23;;;34.37;;
19187;SDS011;9726;52.198;8.792;2024-01-11T03:19:06;80.77;;;30.53;;
19187;SDS011;9726;52.198;8.792;2024-01-11T03:21:34;89.13;;;30.40;;
19187;SDS011;9726;52.198;8.792;2024-01-11T03:24:01;85.73;;;30.70;;
19187;SDS011;9726;52.198;8.792;2024-01-11T03:26:29;83.13;;;28.30;;
19187;SDS011;9726;52.198;8.792;2024-01-11T03:28:56;82.63;;;30.17;;
19187;SDS011;9726;52.198;8.792;2024-01-11T03:31:24;81.07;;;27.80;;
19187;SDS011;9726;52.198;8.792;2024-01-11T03:33:51;79.07;;;30.10;;
19187;SDS011;9726;52.198;8.792;2024-01-11T03:36:22;92.57;;;34.00;;
19187;SDS011;9726;52.198;8.792;2024-01-11T03:38:50;84.53;;;32.37;;
19187;SDS011;9726;52.198;8.792;2024-01-11T03:41:18;78.43;;;30.50;;
19187;SDS011;9726;52.198;8.792;2024-01-11T03:43:46;76.97;;;29.47;;
19187;SDS011;9726;52.198;8.792;2024-01-11T03:46:14;86.97;;;29.43;;
19187;SDS011;9726;52.198;8.792;2024-01-11T03:48:41;89.30;;;31.53;;
19187;SDS011;9726;52.198;8.792;2024-01-11T03:51:09;86.20;;;27.90;;
19187;SDS011;9726;52.198;8.792;2024-01-11T03:53:36;81.00;;;28.77;;
19187;SDS011;9726;52.198;8.792;2024-01-11T03:56:04;89.47;;;30.23;;
19187;SDS011;9726;52.198;8.792;2024-01-11T03:58:32;77.17;;;29.13;;
19187;SDS011;9726;52.198;8.792;2024-01-11T04:01:00;85.30;;;30.43;;
19187;SDS011;9726;52.198;8.792;2024-01-11T04:03:27;77.30;;;27.97;;
19187;SDS011;9726;52.198;8.792;2024-01-11T04:05:55;76.67;;;31.67;;
19187;SDS011;9726;52.198;8.792;2024-01-11T04:08:23;79.97;;;28.57;;
19187;SDS011;9726;52.198;8.792;2024-01-11T04:10:50;85.57;;;30.20;;
19187;SDS011;9726;52.198;8.792;2024-01-11T04:13:18;84.50;;;30.43;;
19187;SDS011;9726;52.198;8.792;2024-01-11T04:15:48;81.87;;;26.97;;
19187;SDS011;9726;52.198;8.792;2024-01-11T04:18:15;82.67;;;28.97;;
19187;SDS011;9726;52.198;8.792;2024-01-11T04:20:43;89.07;;;29.70;;
19187;SDS011;9726;52.198;8.792;2024-01-11T04:23:10;86.40;;;30.27;;
19187;SDS011;9726;52.198;8.792;2024-01-11T04:25:38;79.53;;;29.50;;
19187;SDS011;9726;52.198;8.792;2024-01-11T04:28:06;84.77;;;29.30;;
19187;SDS011;9726;52.198;8.792;2024-01-11T04:30:33;78.17;;;28.03;;
19187;SDS011;9726;52.198;8.792;2024-01-11T04:33:01;95.13;;;29.03;;
19187;SDS011;9726;52.198;8.792;2024-01-11T04:35:29;87.57;;;29.37;;
19187;SDS011;9726;52.198;8.792;2024-01-11T04:37:56;70.73;;;26.93;;
19187;SDS011;9726;52.198;8.792;2024-01-11T04:40:24;71.70;;;28.33;;
19187;SDS011;9726;52.198;8.792;2024-01-11T04:42:51;89.33;;;29.40;;
19187;SDS011;9726;52.198;8.792;2024-01-11T04:45:19;82.30;;;30.17;;
19187;SDS011;9726;52.198;8.792;2024-01-11T04:47:47;72.47;;;28.53;;
19187;SDS011;9726;52.198;8.792;2024-01-11T04:50:14;71.53;;;27.93;;
19187;SDS011;9726;52.198;8.792;2024-01-11T04:52:45;73.30;;;26.60;;
19187;SDS011;9726;52.198;8.792;2024-01-11T04:55:13;79.60;;;27.80;;
19187;SDS011;9726;52.198;8.792;2024-01-11T04:57:40;82.90;;;27.87;;
19187;SDS011;9726;52.198;8.792;2024-01-11T05:00:08;95.70;;;30.93;;
19187;SDS011;9726;52.198;8.792;2024-01-11T05:02:36;80.07;;;27.40;;
19187;SDS011;9726;52.198;8.792;2024-01-11T05:05:04;90.87;;;30.50;;
19187;SDS011;9726;52.198;8.792;2024-01-11T05:07:32;82.10;;;30.23;;
19187;SDS011;9726;52.198;8.792;2024-01-11T05:10:01;75.00;;;29.37;;
19187;SDS011;9726;52.198;8.792;2024-01-11T05:12:29;75.93;;;26.70;;
19187;SDS011;9726;52.198;8.792;2024-01-11T05:14:57;72.70;;;29.20;;
19187;SDS011;9726;52.198;8.792;2024-01-11T05:17:26;80.13;;;27.80;;
19187;SDS011;9726;52.198;8.792;2024-01-11T05:19:54;80.03;;;31.27;;
19187;SDS011;9726;52.198;8.792;2024-01-11T05:22:22;78.90;;;29.17;;
19187;SDS011;9726;52.198;8.792;2024-01-11T05:24:49;77.93;;;30.40;;
19187;SDS011;9726;52.198;8.792;2024-01-11T05:27:17;80.10;;;31.77;;
19187;SDS011;9726;52.198;8.792;2024-01-11T05:29:44;80.73;;;31.33;;
19187;SDS011;9726;52.198;8.792;2024-01-11T05:32:12;254.70;;;40.67;;
19187;SDS011;9726;52.198;8.792;2024-01-11T05:34:40;81.07;;;28.80;;
19187;SDS011;9726;52.198;8.792;2024-01-11T05:37:08;79.43;;;30.13;;
19187;SDS011;9726;52.198;8.792;2024-01-11T05:39:35;77.17;;;30.73;;
19187;SDS011;9726;52.198;8.792;2024-01-11T05:42:03;82.23;;;31.07;;
19187;SDS011;9726;52.198;8.792;2024-01-11T05:44:35;94.60;;;32.87;;
19187;SDS011;9726;52.198;8.792;2024-01-11T05:47:02;78.70;;;31.53;;
19187;SDS011;9726;52.198;8.792;2024-01-11T05:49:30;84.40;;;31.90;;
19187;SDS011;9726;52.198;8.792;2024-01-11T05:51:58;81.87;;;31.33;;
19187;SDS011;9726;52.198;8.792;2024-01-11T05:54:25;79.67;;;32.23;;
19187;SDS011;9726;52.198;8.792;2024-01-11T05:56:55;96.10;;;33.00;;
19187;SDS011;9726;52.198;8.792;2024-01-11T05:59:24;101.17;;;33.77;;
19187;SDS011;9726;52.198;8.792;2024-01-11T06:01:52;85.33;;;30.27;;
19187;SDS011;9726;52.198;8.792;2024-01-11T06:04:20;84.37;;;28.70;;
19187;SDS011;9726;52.198;8.792;2024-01-11T06:06:47;77.70;;;30.20;;
19187;SDS011;9726;52.198;8.792;2024-01-11T06:09:15;87.87;;;30.63;;
19187;SDS011;9726;52.198;8.792;2024-01-11T06:11:43;73.03;;;30.50;;
19187;SDS011;9726;52.198;8.792;2024-01-11T06:14:11;82.70;;;30.30;;
19187;SDS011;9726;52.198;8.792;2024-01-11T06:16:40;75.33;;;31.60;;
19187;SDS011;9726;52.198;8.792;2024-01-11T06:19:07;82.67;;;31.90;;
19187;SDS011;9726;52.198;8.792;2024-01-11T06:21:36;76.83;;;29.13;;
19187;SDS011;9726;52.198;8.792;2024-01-11T06:24:03;76.20;;;29.23;;
19187;SDS011;9726;52.198;8.792;2024-01-11T06:26:31;89.07;;;31.43;;
19187;SDS011;9726;52.198;8.792;2024-01-11T06:28:58;87.63;;;30.40;;
19187;SDS011;9726;52.198;8.792;2024-01-11T06:31:26;88.10;;;33.03;;
19187;SDS011;9726;52.198;8.792;2024-01-11T06:33:54;72.40;;;30.40;;
19187;SDS011;9726;52.198;8.792;2024-01-11T06:36:21;78.67;;;31.67;;
19187;SDS011;9726;52.198;8.792;2024-01-11T06:38:49;82.67;;;29.80;;
19187;SDS011;9726;52.198;8.792;2024-01-11T06:41:16;80.03;;;30.70;;
19187;SDS011;9726;52.198;8.792;2024-01-11T06:43:44;74.80;;;30.40;;
19187;SDS011;9726;52.198;8.792;2024-01-11T06:46:13;84.63;;;30.27;;
19187;SDS011;9726;52.198;8.792;2024-01-11T06:48:40;81.13;;;31.10;;
19187;SDS011;9726;52.198;8.792;2024-01-11T06:51:08;68.37;;;30.00;;
19187;SDS011;9726;52.198;8.792;2024-01-11T06:53:36;83.90;;;30.13;;
19187;SDS011;9726;52.198;8.792;2024-01-11T06:56:12;95.87;;;32.07;;
19187;SDS011;9726;52.198;8.792;2024-01-11T06:58:40;87.60;;;33.97;;
19187;SDS011;9726;52.198;8.792;2024-01-11T07:01:08;100.83;;;35.70;;
19187;SDS011;9726;52.198;8.792;2024-01-11T07:03:36;93.90;;;34.27;;
19187;SDS011;9726;52.198;8.792;2024-01-11T07:06:04;107.63;;;43.47;;
19187;SDS011;9726;52.198;8.792;2024-01-11T07:08:32;88.33;;;30.87;;
19187;SDS011;9726;52.198;8.792;2024-01-11T07:11:00;89.30;;;35.20;;
19187;SDS011;9726;52.198;8.792;2024-01-11T07:13:31;93.93;;;35.67;;
19187;SDS011;9726;52.198;8.792;2024-01-11T07:15:59;84.33;;;34.90;;
19187;SDS011;9726;52.198;8.792;2024-01-11T07:18:26;82.60;;;34.50;;
19187;SDS011;9726;52.198;8.792;2024-01-11T07:20:56;86.93;;;34.13;;
19187;SDS011;9726;52.198;8.792;2024-01-11T07:23:25;95.03;;;35.90;;
19187;SDS011;9726;52.198;8.792;2024-01-11T07:25:53;93.90;;;34.00;;
19187;SDS011;9726;52.198;8.792;2024-01-11T07:28:20;86.13;;;34.07;;
19187;SDS011;9726;52.198;8.792;2024-01-11T07:30:52;100.30;;;34.17;;
19187;SDS011;9726;52.198;8.792;2024-01-11T07:33:20;92.93;;;33.47;;
19187;SDS011;9726;52.198;8.792;2024-01-11T07:35:48;79.83;;;32.80;;
19187;SDS011;9726;52.198;8.792;2024-01-11T07:38:16;81.83;;;32.77;;
19187;SDS011;9726;52.198;8.792;2024-01-11T07:40:43;94.17;;;34.30;;
19187;SDS011;9726;52.198;8.792;2024-01-11T07:43:11;85.90;;;32.23;;
19187;SDS011;9726;52.198;8.792;2024-01-11T07:45:40;72.67;;;30.80;;
19187;SDS011;9726;52.198;8.792;2024-01-11T07:48:08;94.93;;;34.07;;
19187;SDS011;9726;52.198;8.792;2024-01-11T07:50:35;92.17;;;32.00;;
19187;SDS011;9726;52.198;8.792;2024-01-11T07:53:03;81.07;;;33.07;;
19187;SDS011;9726;52.198;8.792;2024-01-11T07:55:32;93.30;;;33.63;;
19187;SDS011;9726;52.198;8.792;2024-01-11T07:57:59;79.93;;;32.80;;
19187;SDS011;9726;52.198;8.792;2024-01-11T08:00:27;89.23;;;34.87;;
19187;SDS011;9726;52.198;8.792;2024-01-11T08:02:55;101.03;;;35.50;;
19187;SDS011;9726;52.198;8.792;2024-01-11T08:05:23;98.50;;;35.60;;
19187;SDS011;9726;52.198;8.792;2024-01-11T08:07:51;90.57;;;36.40;;
19187;SDS011;9726;52.198;8.792;2024-01-11T08:10:19;95.27;;;36.37;;
19187;SDS011;9726;52.198;8.792;2024-01-11T08:12:50;88.00;;;35.60;;
19187;SDS011;9726;52.198;8.792;2024-01-11T08:15:19;92.43;;;35.50;;
19187;SDS011;9726;52.198;8.792;2024-01-11T08:17:47;98.03;;;39.97;;
19187;SDS011;9726;52.198;8.792;2024-01-11T08:20:15;93.60;;;34.80;;
19187;SDS011;9726;52.198;8.792;2024-01-11T08:22:43;95.13;;;35.77;;
19187;SDS011;9726;52.198;8.792;2024-01-11T08:25:12;99.50;;;37.37;;
19187;SDS011;9726;52.198;8.792;2024-01-11T08:27:40;105.37;;;37.17;;
19187;SDS011;9726;52.198;8.792;2024-01-11T08:30:07;102.03;;;36.37;;
19187;SDS011;9726;52.198;8.792;2024-01-11T08:32:35;99.23;;;39.13;;
19187;SDS011;9726;52.198;8.792;2024-01-11T08:35:06;97.43;;;38.70;;
19187;SDS011;9726;52.198;8.792;2024-01-11T08:37:35;101.73;;;37.77;;
19187;SDS011;9726;52.198;8.792;2024-01-11T08:40:03;99.47;;;38.40;;
19187;SDS011;9726;52.198;8.792;2024-01-11T08:42:31;100.50;;;37.17;;
19187;SDS011;9726;52.198;8.792;2024-01-11T08:44:59;94.27;;;37.37;;
19187;SDS011;9726;52.198;8.792;2024-01-11T08:47:33;97.30;;;38.23;;
19187;SDS011;9726;52.198;8.792;2024-01-11T08:50:01;91.60;;;35.03;;
19187;SDS011;9726;52.198;8.792;2024-01-11T08:52:33;85.13;;;36.23;;
19187;SDS011;9726;52.198;8.792;2024-01-11T08:55:00;102.53;;;37.93;;
19187;SDS011;9726;52.198;8.792;2024-01-11T08:57:28;99.00;;;35.30;;
19187;SDS011;9726;52.198;8.792;2024-01-11T08:59:55;95.30;;;35.87;;
19187;SDS011;9726;52.198;8.792;2024-01-11T09:02:23;89.53;;;35.97;;
19187;SDS011;9726;52.198;8.792;2024-01-11T09:04:53;87.40;;;33.27;;
19187;SDS011;9726;52.198;8.792;2024-01-11T09:07:20;86.70;;;33.90;;
19187;SDS011;9726;52.198;8.792;2024-01-11T09:09:48;73.70;;;29.80;;
19187;SDS011;9726;52.198;8.792;2024-01-11T09:12:22;82.37;;;31.50;;
19187;SDS011;9726;52.198;8.792;2024-01-11T09:14:50;89.83;;;33.37;;
19187;SDS011;9726;52.198;8.792;2024-01-11T09:17:18;86.70;;;32.00;;
19187;SDS011;9726;52.198;8.792;2024-01-11T09:19:46;82.70;;;31.47;;
19187;SDS011;9726;52.198;8.792;2024-01-11T09:22:13;107.87;;;35.00;;
19187;SDS011;9726;52.198;8.792;2024-01-11T09:24:41;82.40;;;31.20;;
19187;SDS011;9726;52.198;8.792;2024-01-11T09:27:08;84.43;;;30.33;;
19187;SDS011;9726;52.198;8.792;2024-01-11T09:29:36;81.77;;;30.67;;
19187;SDS011;9726;52.198;8.792;2024-01-11T09:32:04;86.67;;;32.07;;
19187;SDS011;9726;52.198;8.792;2024-01-11T09:34:32;74.97;;;30.73;;
19187;SDS011;9726;52.198;8.792;2024-01-11T09:37:00;83.83;;;29.97;;
19187;SDS011;9726;52.198;8.792;2024-01-11T09:39:27;82.80;;;29.70;;
19187;SDS011;9726;52.198;8.792;2024-01-11T09:41:57;80.53;;;29.67;;
19187;SDS011;9726;52.198;8.792;2024-01-11T09:44:26;81.80;;;28.40;;
19187;SDS011;9726;52.198;8.792;2024-01-11T09:46:53;77.17;;;29.07;;
19187;SDS011;9726;52.198;8.792;2024-01-11T09:49:21;73.30;;;28.30;;
19187;SDS011;9726;52.198;8.792;2024-01-11T09:51:50;68.63;;;29.03;;
19187;SDS011;9726;52.198;8.792;2024-01-11T09:54:18;82.60;;;28.33;;
19187;SDS011;9726;52.198;8.792;2024-01-11T09:56:48;74.87;;;28.03;;
19187;SDS011;9726;52.198;8.792;2024-01-11T09:59:18;68.63;;;29.37;;
19187;SDS011;9726;52.198;8.792;2024-01-11T10:01:46;70.30;;;26.33;;
19187;SDS011;9726;52.198;8.792;2024-01-11T10:04:13;72.40;;;29.67;;
19187;SDS011;9726;52.198;8.792;2024-01-11T10:06:42;74.73;;;27.10;;
19187;SDS011;9726;52.198;8.792;2024-01-11T10:09:09;66.47;;;28.70;;
19187;SDS011;9726;52.198;8.792;2024-01-11T10:11:37;72.57;;;27.77;;
19187;SDS011;9726;52.198;8.792;2024-01-11T10:14:05;60.60;;;24.77;;
19187;SDS011;9726;52.198;8.792;2024-01-11T10:16:33;65.40;;;26.00;;
19187;SDS011;9726;52.198;8.792;2024-01-11T10:19:01;66.07;;;27.30;;
19187;SDS011;9726;52.198;8.792;2024-01-11T10:21:30;61.93;;;24.17;;
19187;SDS011;9726;52.198;8.792;2024-01-11T10:23:58;63.50;;;23.33;;
19187;SDS011;9726;52.198;8.792;2024-01-11T10:26:31;59.67;;;23.80;;
19187;SDS011;9726;52.198;8.792;2024-01-11T10:28:59;57.17;;;23.40;;
19187;SDS011;9726;52.198;8.792;2024-01-11T10:31:29;57.97;;;23.40;;
19187;SDS011;9726;52.198;8.792;2024-01-11T10:33:57;55.03;;;22.77;;
19187;SDS011;9726;52.198;8.792;2024-01-11T10:36:25;57.50;;;23.87;;
19187;SDS011;9726;52.198;8.792;2024-01-11T10:38:56;64.70;;;23.90;;
19187;SDS011;9726;52.198;8.792;2024-01-11T10:41:24;55.63;;;22.53;;
19187;SDS011;9726;52.198;8.792;2024-01-11T10:43:53;57.80;;;23.97;;
19187;SDS011;9726;52.198;8.792;2024-01-11T10:46:21;64.77;;;25.50;;
19187;SDS011;9726;52.198;8.792;2024-01-11T10:48:49;54.33;;;23.33;;
19187;SDS011;9726;52.198;8.792;2024-01-11T10:51:20;54.30;;;23.00;;
19187;SDS011;9726;52.198;8.792;2024-01-11T10:53:50;58.53;;;23.07;;
19187;SDS011;9726;52.198;8.792;2024-01-11T10:56:19;67.10;;;27.37;;
19187;SDS011;9726;52.198;8.792;2024-01-11T10:58:47;71.87;;;27.40;;
19187;SDS011;9726;52.198;8.792;2024-01-11T11:01:15;68.67;;;27.43;;
19187;SDS011;9726;52.198;8.792;2024-01-11T11:03:43;64.27;;;27.23;;
19187;SDS011;9726;52.198;8.792;2024-01-11T11:06:12;70.47;;;25.50;;
19187;SDS011;9726;52.198;8.792;2024-01-11T11:08:41;60.10;;;25.23;;
19187;SDS011;9726;52.198;8.792;2024-01-11T11:11:09;73.47;;;26.33;;
19187;SDS011;9726;52.198;8.792;2024-01-11T11:13:36;58.90;;;25.23;;
19187;SDS011;9726;52.198;8.792;2024-01-11T11:16:04;68.03;;;25.83;;
19187;SDS011;9726;52.198;8.792;2024-01-11T11:18:32;75.80;;;27.70;;
19187;SDS011;9726;52.198;8.792;2024-01-11T11:21:06;69.17;;;26.87;;
19187;SDS011;9726;52.198;8.792;2024-01-11T11:23:34;80.70;;;31.07;;
19187;SDS011;9726;52.198;8.792;2024-01-11T11:26:01;79.43;;;30.97;;
19187;SDS011;9726;52.198;8.792;2024-01-11T11:28:28;87.23;;;31.00;;
19187;SDS011;9726;52.198;8.792;2024-01-11T11:30:56;70.90;;;28.83;;
19187;SDS011;9726;52.198;8.792;2024-01-11T11:33:29;65.07;;;28.23;;
19187;SDS011;9726;52.198;8.792;2024-01-11T11:36:00;68.10;;;27.90;;
19187;SDS011;9726;52.198;8.792;2024-01-11T11:38:30;82.00;;;30.37;;
19187;SDS011;9726;52.198;8.792;2024-01-11T11:41:00;75.10;;;29.57;;
19187;SDS011;9726;52.198;8.792;2024-01-11T11:43:28;76.90;;;31.53;;
19187;SDS011;9726;52.198;8.792;2024-01-11T11:45:56;75.10;;;32.87;;
19187;SDS011;9726;52.198;8.792;2024-01-11T11:51:09;77.40;;;32.40;;
19187;SDS011;9726;52.198;8.792;2024-01-11T11:53:37;77.77;;;31.60;;
19187;SDS011;9726;52.198;8.792;2024-01-11T11:56:05;83.30;;;32.37;;
19187;SDS011;9726;52.198;8.792;2024-01-11T11:58:33;85.83;;;30.50;;
19187;SDS011;9726;52.198;8.792;2024-01-11T12:01:01;91.23;;;33.30;;
19187;SDS011;9726;52.198;8.792;2024-01-11T12:03:36;84.37;;;31.87;;
19187;SDS011;9726;52.198;8.792;2024-01-11T12:06:05;77.47;;;32.20;;
19187;SDS011;9726;52.198;8.792;2024-01-11T12:08:35;78.17;;;32.63;;
19187;SDS011;9726;52.198;8.792;2024-01-11T12:11:03;78.43;;;31.30;;
19187;SDS011;9726;52.198;8.792;2024-01-11T12:13:32;80.60;;;34.53;;
19187;SDS011;9726;52.198;8.792;2024-01-11T12:16:00;82.37;;;33.90;;
19187;SDS011;9726;52.198;8.792;2024-01-11T12:18:28;80.57;;;31.80;;
19187;SDS011;9726;52.198;8.792;2024-01-11T12:20:56;86.00;;;32.60;;
19187;SDS011;9726;52.198;8.792;2024-01-11T12:23:24;78.47;;;32.10;;
19187;SDS011;9726;52.198;8.792;2024-01-11T12:25:52;89.13;;;33.43;;
19187;SDS011;9726;52.198;8.792;2024-01-11T12:28:19;74.93;;;32.00;;
19187;SDS011;9726;52.198;8.792;2024-01-11T12:30:54;99.07;;;34.77;;
19187;SDS011;9726;52.198;8.792;2024-01-11T12:33:23;88.83;;;34.83;;
19187;SDS011;9726;52.198;8.792;2024-01-11T12:35:52;85.73;;;34.73;;
19187;SDS011;9726;52.198;8.792;2024-01-11T12:38:20;83.37;;;33.33;;
19187;SDS011;9726;52.198;8.792;2024-01-11T12:40:48;80.77;;;33.90;;
19187;SDS011;9726;52.198;8.792;2024-01-11T12:43:16;88.83;;;34.57;;
19187;SDS011;9726;52.198;8.792;2024-01-11T12:45:43;84.80;;;34.47;;
19187;SDS011;9726;52.198;8.792;2024-01-11T12:48:11;89.77;;;34.63;;
19187;SDS011;9726;52.198;8.792;2024-01-11T12:50:41;84.03;;;35.63;;
19187;SDS011;9726;52.198;8.792;2024-01-11T12:53:09;79.93;;;32.73;;
19187;SDS011;9726;52.198;8.792;2024-01-11T12:55:48;84.17;;;33.43;;
19187;SDS011;9726;52.198;8.792;2024-01-11T12:58:23;83.90;;;32.73;;
19187;SDS011;9726;52.198;8.792;2024-01-11T13:00:53;78.17;;;30.43;;
19187;SDS011;9726;52.198;8.792;2024-01-11T13:03:21;97.00;;;35.27;;
19187;SDS011;9726;52.198;8.792;2024-01-11T13:05:50;93.03;;;34.50;;
19187;SDS011;9726;52.198;8.792;2024-01-11T13:08:18;83.90;;;33.60;;
19187;SDS011;9726;52.198;8.792;2024-01-11T13:10:47;87.03;;;33.73;;
19187;SDS011;9726;52.198;8.792;2024-01-11T13:13:15;84.30;;;32.17;;
19187;SDS011;9726;52.198;8.792;2024-01-11T13:15:43;83.50;;;32.67;;
19187;SDS011;9726;52.198;8.792;2024-01-11T13:18:12;88.53;;;32.90;;
19187;SDS011;9726;52.198;8.792;2024-01-11T13:20:39;88.67;;;32.97;;
19187;SDS011;9726;52.198;8.792;2024-01-11T13:23:13;85.77;;;32.40;;
19187;SDS011;9726;52.198;8.792;2024-01-11T13:25:42;81.87;;;33.97;;
19187;SDS011;9726;52.198;8.792;2024-01-11T13:28:10;74.67;;;28.67;;
19187;SDS011;9726;52.198;8.792;2024-01-11T13:30:39;97.83;;;33.13;;
19187;SDS011;9726;52.198;8.792;2024-01-11T13:33:07;88.70;;;28.63;;
19187;SDS011;9726;52.198;8.792;2024-01-11T13:35:39;84.47;;;31.90;;
19187;SDS011;9726;52.198;8.792;2024-01-11T13:38:08;88.10;;;31.80;;
19187;SDS011;9726;52.198;8.792;2024-01-11T13:40:35;78.50;;;29.23;;
19187;SDS011;9726;52.198;8.792;2024-01-11T13:43:03;93.73;;;32.13;;
19187;SDS011;9726;52.198;8.792;2024-01-11T13:45:31;92.50;;;30.80;;
19187;SDS011;9726;52.198;8.792;2024-01-11T13:47:58;84.83;;;30.40;;
19187;SDS011;9726;52.198;8.792;2024-01-11T13:50:26;85.63;;;31.37;;
19187;SDS011;9726;52.198;8.792;2024-01-11T13:52:54;102.03;;;35.23;;
19187;SDS011;9726;52.198;8.792;2024-01-11T13:55:22;106.27;;;34.00;;
19187;SDS011;9726;52.198;8.792;2024-01-11T13:57:50;91.97;;;32.33;;
19187;SDS011;9726;52.198;8.792;2024-01-11T14:00:18;94.67;;;32.73;;
19187;SDS011;9726;52.198;8.792;2024-01-11T14:02:47;103.27;;;34.00;;
19187;SDS011;9726;52.198;8.792;2024-01-11T14:05:15;85.33;;;30.73;;
19187;SDS011;9726;52.198;8.792;2024-01-11T14:07:45;84.83;;;32.40;;
19187;SDS011;9726;52.198;8.792;2024-01-11T14:10:14;89.43;;;30.93;;
19187;SDS011;9726;52.198;8.792;2024-01-11T14:12:42;91.73;;;32.93;;
19187;SDS011;9726;52.198;8.792;2024-01-11T14:15:10;98.13;;;32.47;;
19187;SDS011;9726;52.198;8.792;2024-01-11T14:17:39;91.30;;;31.57;;
19187;SDS011;9726;52.198;8.792;2024-01-11T14:20:08;94.17;;;33.10;;
19187;SDS011;9726;52.198;8.792;2024-01-11T14:22:41;84.37;;;33.10;;
19187;SDS011;9726;52.198;8.792;2024-01-11T14:25:13;89.53;;;29.97;;
19187;SDS011;9726;52.198;8.792;2024-01-11T14:27:42;86.87;;;32.00;;
19187;SDS011;9726;52.198;8.792;2024-01-11T14:30:11;86.73;;;31.30;;
19187;SDS011;9726;52.198;8.792;2024-01-11T14:32:39;86.77;;;30.50;;
19187;SDS011;9726;52.198;8.792;2024-01-11T14:35:12;83.27;;;31.50;;
19187;SDS011;9726;52.198;8.792;2024-01-11T14:37:40;92.97;;;30.50;;
19187;SDS011;9726;52.198;8.792;2024-01-11T14:40:09;81.60;;;30.50;;
19187;SDS011;9726;52.198;8.792;2024-01-11T14:42:38;100.57;;;32.53;;